createdAt,value
2019-03-31T00:00:40.828Z,51.68
2019-03-31T00:01:46.059Z,51.53
2019-03-31T00:02:49.531Z,55.78
2019-03-31T00:03:52.935Z,52.95
2019-03-31T00:04:56.369Z,52.08
2019-03-31T00:05:59.873Z,48.68
2019-03-31T00:07:03.406Z,65.47
2019-03-31T00:08:06.848Z,62.73
2019-03-31T00:09:10.456Z,58.87
2019-03-31T00:10:14.065Z,54.35
2019-03-31T00:11:17.658Z,62.80
2019-03-31T00:12:21.176Z,51.37
2019-03-31T00:13:24.690Z,44.05
2019-03-31T00:14:28.122Z,43.40
2019-03-31T00:15:31.569Z,45.38
2019-03-31T00:16:35.026Z,41.18
2019-03-31T00:17:38.456Z,41.45
2019-03-31T00:18:41.973Z,40.20
2019-03-31T00:19:45.415Z,41.35
2019-03-31T00:20:48.844Z,43.52
2019-03-31T00:21:52.299Z,41.65
2019-03-31T00:22:55.790Z,38.55
2019-03-31T00:23:59.221Z,43.23
2019-03-31T00:25:03.084Z,35.00
2019-03-31T00:26:06.523Z,35.30
2019-03-31T00:27:10.002Z,37.50
2019-03-31T00:28:13.439Z,39.03
2019-03-31T00:29:16.947Z,40.65
2019-03-31T00:30:20.554Z,47.93
2019-03-31T00:31:23.997Z,61.02
2019-03-31T00:32:27.438Z,48.83
2019-03-31T00:33:30.973Z,44.13
2019-03-31T00:34:34.404Z,55.08
2019-03-31T00:35:37.834Z,48.68
2019-03-31T00:36:41.277Z,42.30
2019-03-31T00:37:44.778Z,46.45
2019-03-31T00:38:48.280Z,34.73
2019-03-31T00:39:51.706Z,45.33
2019-03-31T00:40:55.137Z,41.40
2019-03-31T00:41:58.588Z,40.33
2019-03-31T00:43:02.044Z,44.38
2019-03-31T00:44:05.491Z,45.95
2019-03-31T00:45:09.092Z,45.95
2019-03-31T00:46:12.539Z,47.50
2019-03-31T00:47:16.057Z,55.38
2019-03-31T00:48:19.481Z,60.78
2019-03-31T00:49:22.914Z,52.38
2019-03-31T00:50:26.364Z,45.52
2019-03-31T00:51:29.807Z,39.48
2019-03-31T00:52:33.265Z,50.83
2019-03-31T00:53:36.685Z,46.25
2019-03-31T00:54:40.189Z,47.85
2019-03-31T00:55:43.628Z,60.98
2019-03-31T00:56:47.066Z,44.05
2019-03-31T00:57:50.550Z,41.63
2019-03-31T00:58:53.954Z,35.45
2019-03-31T00:59:57.391Z,34.50
2019-03-31T01:01:03.600Z,33.78
2019-03-31T01:02:08.935Z,33.28
2019-03-31T01:03:12.365Z,27.98
2019-03-31T01:04:17.036Z,36.48
2019-03-31T01:05:20.540Z,35.78
2019-03-31T01:06:24.693Z,46.55
2019-03-31T01:07:28.149Z,55.83
2019-03-31T01:08:33.890Z,72.42
2019-03-31T01:09:37.491Z,77.17
2019-03-31T01:10:42.071Z,49.30
2019-03-31T01:11:45.842Z,62.17
2019-03-31T01:12:49.355Z,55.83
2019-03-31T01:13:52.957Z,60.83
2019-03-31T01:14:56.735Z,74.62
2019-03-31T01:16:00.408Z,60.38
2019-03-31T01:17:06.423Z,59.40
2019-03-31T01:18:10.882Z,60.12
2019-03-31T01:19:15.224Z,60.15
2019-03-31T01:20:18.677Z,60.60
2019-03-31T01:21:22.362Z,59.88
2019-03-31T01:22:25.888Z,54.73
2019-03-31T01:23:29.395Z,68.85
2019-03-31T01:24:32.967Z,63.95
2019-03-31T01:25:36.402Z,70.70
2019-03-31T01:26:39.965Z,55.58
2019-03-31T01:27:43.650Z,72.15
2019-03-31T01:28:47.163Z,70.75
2019-03-31T01:29:50.612Z,67.17
2019-03-31T01:30:54.183Z,73.33
2019-03-31T01:31:58.060Z,79.12
2019-03-31T01:33:01.820Z,74.75
2019-03-31T01:34:05.598Z,87.12
2019-03-31T01:35:11.304Z,69.72
2019-03-31T01:36:15.476Z,52.93
2019-03-31T01:37:20.281Z,54.50
2019-03-31T01:38:24.171Z,51.33
2019-03-31T01:39:29.107Z,56.58
2019-03-31T01:40:32.679Z,51.48
2019-03-31T01:41:36.250Z,61.90
2019-03-31T01:42:39.759Z,56.77
2019-03-31T01:43:43.206Z,46.60
2019-03-31T01:44:46.716Z,48.50
2019-03-31T01:45:50.211Z,39.42
2019-03-31T01:46:53.852Z,40.92
2019-03-31T01:47:57.380Z,44.08
2019-03-31T01:49:01.051Z,50.83
2019-03-31T01:50:09.515Z,57.03
2019-03-31T01:51:12.949Z,60.20
2019-03-31T01:52:16.450Z,58.98
2019-03-31T01:53:19.972Z,53.92
2019-03-31T01:54:23.476Z,43.92
2019-03-31T01:55:26.970Z,46.85
2019-03-31T01:56:30.446Z,45.55
2019-03-31T01:57:33.834Z,50.33
2019-03-31T01:58:37.285Z,63.17
2019-03-31T01:59:40.714Z,60.15
2019-03-31T02:00:46.065Z,41.83
2019-03-31T02:02:03.302Z,60.03
2019-03-31T02:02:54.868Z,57.67
2019-03-31T02:03:58.387Z,55.58
2019-03-31T02:05:01.818Z,50.10
2019-03-31T02:06:05.327Z,59.67
2019-03-31T02:07:08.997Z,66.28
2019-03-31T02:08:12.503Z,83.45
2019-03-31T02:09:15.980Z,87.00
2019-03-31T02:10:19.411Z,90.05
2019-03-31T02:11:22.848Z,83.60
2019-03-31T02:12:26.276Z,73.70
2019-03-31T02:13:29.783Z,71.97
2019-03-31T02:14:33.310Z,59.03
2019-03-31T02:15:36.806Z,67.67
2019-03-31T02:16:40.245Z,60.52
2019-03-31T02:17:43.677Z,52.93
2019-03-31T02:18:47.127Z,61.70
2019-03-31T02:19:50.563Z,70.65
2019-03-31T02:20:54.084Z,67.05
2019-03-31T02:21:57.506Z,59.50
2019-03-31T02:23:01.080Z,66.02
2019-03-31T02:24:04.671Z,54.33
2019-03-31T02:25:08.171Z,47.35
2019-03-31T02:26:11.611Z,54.35
2019-03-31T02:27:15.045Z,47.60
2019-03-31T02:28:18.487Z,51.83
2019-03-31T02:29:22.011Z,49.85
2019-03-31T02:30:25.449Z,35.80
2019-03-31T02:31:28.948Z,27.93
2019-03-31T02:32:32.379Z,27.70
2019-03-31T02:33:35.819Z,28.77
2019-03-31T02:34:39.267Z,30.45
2019-03-31T02:35:42.697Z,28.42
2019-03-31T02:36:46.126Z,30.12
2019-03-31T02:37:49.554Z,24.77
2019-03-31T02:38:53.018Z,29.37
2019-03-31T02:39:56.483Z,28.60
2019-03-31T02:41:00.026Z,29.12
2019-03-31T02:42:03.457Z,41.60
2019-03-31T02:43:06.884Z,48.55
2019-03-31T02:44:10.336Z,43.95
2019-03-31T02:45:14.148Z,62.23
2019-03-31T02:46:17.648Z,64.45
2019-03-31T02:47:21.146Z,55.88
2019-03-31T02:48:24.573Z,52.60
2019-03-31T02:49:28.040Z,55.23
2019-03-31T02:50:46.008Z,53.10
2019-03-31T02:51:49.445Z,55.20
2019-03-31T02:52:53.005Z,58.25
2019-03-31T02:53:56.721Z,49.42
2019-03-31T02:55:00.520Z,57.90
2019-03-31T02:56:04.876Z,60.52
2019-03-31T02:57:08.443Z,63.02
2019-03-31T02:58:14.235Z,68.85
2019-03-31T02:59:19.904Z,43.05
2019-03-31T03:00:23.404Z,50.38
2019-03-31T03:01:27.515Z,38.63
2019-03-31T03:02:41.379Z,40.33
2019-03-31T03:03:39.178Z,34.30
2019-03-31T03:04:43.166Z,29.15
2019-03-31T03:05:47.332Z,28.07
2019-03-31T03:06:53.806Z,34.98
2019-03-31T03:07:58.181Z,31.97
2019-03-31T03:09:06.333Z,31.75
2019-03-31T03:10:10.189Z,30.35
2019-03-31T03:11:16.900Z,25.35
2019-03-31T03:12:22.572Z,26.50
2019-03-31T03:13:27.798Z,39.60
2019-03-31T03:14:34.454Z,43.60
2019-03-31T03:15:52.832Z,48.15
2019-03-31T03:16:56.430Z,38.75
2019-03-31T03:17:59.860Z,66.12
2019-03-31T03:19:03.380Z,47.78
2019-03-31T03:20:07.159Z,50.30
2019-03-31T03:21:10.585Z,50.88
2019-03-31T03:22:14.020Z,40.52
2019-03-31T03:23:17.459Z,50.35
2019-03-31T03:24:20.897Z,51.30
2019-03-31T03:25:24.349Z,40.83
2019-03-31T03:26:27.777Z,44.35
2019-03-31T03:27:31.487Z,44.20
2019-03-31T03:28:34.919Z,46.75
2019-03-31T03:29:38.361Z,39.85
2019-03-31T03:30:41.872Z,39.83
2019-03-31T03:31:45.437Z,34.73
2019-03-31T03:33:13.495Z,40.03
2019-03-31T03:33:54.021Z,28.87
2019-03-31T03:34:57.544Z,26.50
2019-03-31T03:36:00.981Z,33.80
2019-03-31T03:37:04.547Z,30.62
2019-03-31T03:38:07.983Z,35.45
2019-03-31T03:39:11.435Z,32.65
2019-03-31T03:40:15.018Z,37.88
2019-03-31T03:41:18.522Z,43.00
2019-03-31T03:42:21.960Z,46.92
2019-03-31T03:43:25.378Z,56.28
2019-03-31T03:44:28.828Z,53.80
2019-03-31T03:45:39.684Z,41.20
2019-03-31T03:46:43.119Z,36.77
2019-03-31T03:47:46.650Z,35.73
2019-03-31T03:48:50.161Z,28.75
2019-03-31T03:49:53.617Z,31.17
2019-03-31T03:50:57.191Z,38.17
2019-03-31T03:52:00.619Z,32.33
2019-03-31T03:53:04.131Z,29.60
2019-03-31T03:54:07.590Z,26.40
2019-03-31T03:55:11.167Z,34.10
2019-03-31T03:56:14.596Z,34.03
2019-03-31T03:57:18.029Z,29.87
2019-03-31T03:58:21.537Z,30.70
2019-03-31T03:59:24.964Z,28.20
2019-03-31T04:00:28.463Z,25.88
2019-03-31T04:01:32.179Z,31.35
2019-03-31T04:02:35.637Z,28.17
2019-03-31T04:03:39.092Z,40.95
2019-03-31T04:04:42.660Z,41.80
2019-03-31T04:05:46.184Z,32.42
2019-03-31T04:06:49.613Z,34.65
2019-03-31T04:07:53.046Z,33.90
2019-03-31T04:08:56.475Z,33.08
2019-03-31T04:09:59.913Z,36.90
2019-03-31T04:11:11.993Z,41.85
2019-03-31T04:12:15.438Z,34.48
2019-03-31T04:13:18.866Z,38.55
2019-03-31T04:14:22.318Z,40.33
2019-03-31T04:15:25.864Z,42.85
2019-03-31T04:16:29.361Z,30.48
2019-03-31T04:17:32.791Z,31.90
2019-03-31T04:18:36.225Z,28.92
2019-03-31T04:19:39.674Z,28.50
2019-03-31T04:20:43.110Z,29.87
2019-03-31T04:21:46.531Z,31.48
2019-03-31T04:22:49.965Z,26.33
2019-03-31T04:23:53.552Z,27.13
2019-03-31T04:24:56.983Z,25.92
2019-03-31T04:26:00.450Z,24.05
2019-03-31T04:27:03.956Z,21.93
2019-03-31T04:28:07.415Z,25.60
2019-03-31T04:29:10.912Z,25.50
2019-03-31T04:30:14.349Z,25.55
2019-03-31T04:31:18.053Z,24.77
2019-03-31T04:32:21.574Z,24.02
2019-03-31T04:33:25.094Z,25.52
2019-03-31T04:34:28.664Z,24.82
2019-03-31T04:35:32.217Z,20.97
2019-03-31T04:36:35.734Z,19.40
2019-03-31T04:37:39.181Z,20.10
2019-03-31T04:38:42.690Z,19.73
2019-03-31T04:39:46.202Z,23.60
2019-03-31T04:40:49.744Z,20.90
2019-03-31T04:41:53.183Z,18.62
2019-03-31T04:42:56.622Z,24.77
2019-03-31T04:44:00.136Z,20.17
2019-03-31T04:45:03.915Z,17.42
2019-03-31T04:46:07.451Z,28.15
2019-03-31T04:47:10.901Z,26.45
2019-03-31T04:48:14.416Z,27.13
2019-03-31T04:49:17.867Z,18.90
2019-03-31T04:50:21.499Z,21.93
2019-03-31T04:51:25.034Z,18.02
2019-03-31T04:52:28.474Z,22.05
2019-03-31T04:53:32.036Z,21.35
2019-03-31T04:54:35.465Z,22.87
2019-03-31T04:55:38.992Z,22.15
2019-03-31T04:56:42.507Z,22.35
2019-03-31T04:57:46.021Z,17.60
2019-03-31T04:58:49.537Z,20.50
2019-03-31T04:59:52.997Z,19.55
2019-03-31T05:00:56.654Z,16.65
2019-03-31T05:02:00.184Z,18.55
2019-03-31T05:03:03.696Z,19.98
2019-03-31T05:04:07.149Z,31.70
2019-03-31T05:05:10.777Z,25.23
2019-03-31T05:06:14.368Z,17.20
2019-03-31T05:07:17.876Z,26.42
2019-03-31T05:08:21.409Z,16.70
2019-03-31T05:09:24.920Z,25.05
2019-03-31T05:10:28.370Z,22.75
2019-03-31T05:11:31.823Z,16.50
2019-03-31T05:12:35.335Z,27.25
2019-03-31T05:13:38.842Z,17.75
2019-03-31T05:14:42.285Z,18.10
2019-03-31T05:15:45.758Z,16.05
2019-03-31T05:16:49.212Z,19.42
2019-03-31T05:17:52.667Z,21.37
2019-03-31T05:18:56.124Z,24.05
2019-03-31T05:19:59.590Z,25.25
2019-03-31T05:21:03.267Z,19.98
2019-03-31T05:22:06.696Z,17.50
2019-03-31T05:23:10.130Z,14.83
2019-03-31T05:24:13.604Z,19.70
2019-03-31T05:25:17.039Z,18.05
2019-03-31T05:26:20.571Z,19.60
2019-03-31T05:27:24.082Z,14.53
2019-03-31T05:28:27.529Z,19.92
2019-03-31T05:29:30.989Z,16.45
2019-03-31T05:30:34.418Z,19.48
2019-03-31T05:31:37.932Z,15.10
2019-03-31T05:32:41.369Z,14.25
2019-03-31T05:33:44.827Z,17.27
2019-03-31T05:34:48.273Z,16.50
2019-03-31T05:35:51.806Z,23.05
2019-03-31T05:36:55.362Z,15.55
2019-03-31T05:37:58.822Z,17.20
2019-03-31T05:39:02.324Z,17.32
2019-03-31T05:40:06.018Z,20.92
2019-03-31T05:41:09.559Z,17.05
2019-03-31T05:42:12.997Z,17.80
2019-03-31T05:43:16.442Z,15.00
2019-03-31T05:44:19.873Z,16.67
2019-03-31T05:45:23.306Z,17.42
2019-03-31T05:46:26.768Z,16.95
2019-03-31T05:47:30.321Z,16.55
2019-03-31T05:48:33.742Z,19.12
2019-03-31T05:49:37.182Z,19.17
2019-03-31T05:50:40.625Z,18.65
2019-03-31T05:51:44.201Z,23.62
2019-03-31T05:52:47.705Z,18.50
2019-03-31T05:53:51.207Z,18.17
2019-03-31T05:54:54.782Z,13.68
2019-03-31T05:55:58.366Z,25.62
2019-03-31T05:57:01.883Z,20.50
2019-03-31T05:58:05.451Z,20.27
2019-03-31T05:59:08.888Z,15.50
2019-03-31T06:00:12.482Z,14.83
2019-03-31T06:01:16.019Z,14.10
2019-03-31T06:02:19.712Z,15.85
2019-03-31T06:03:23.142Z,15.63
2019-03-31T06:04:33.049Z,19.85
2019-03-31T06:05:31.793Z,14.98
2019-03-31T06:06:37.048Z,22.00
2019-03-31T06:07:40.384Z,16.97
2019-03-31T06:08:43.879Z,18.27
2019-03-31T06:09:47.307Z,16.73
2019-03-31T06:10:50.801Z,19.87
2019-03-31T06:11:54.254Z,17.62
2019-03-31T06:12:57.700Z,20.43
2019-03-31T06:14:01.131Z,19.50
2019-03-31T06:15:05.200Z,14.40
2019-03-31T06:16:08.697Z,16.67
2019-03-31T06:17:12.307Z,40.95
2019-03-31T06:18:15.796Z,15.95
2019-03-31T06:19:19.269Z,16.17
2019-03-31T06:20:22.657Z,16.05
2019-03-31T06:21:29.097Z,18.23
2019-03-31T06:22:31.333Z,19.10
2019-03-31T06:23:34.755Z,16.77
2019-03-31T06:24:38.180Z,18.80
2019-03-31T06:25:41.611Z,17.77
2019-03-31T06:26:45.068Z,18.23
2019-03-31T06:27:48.609Z,15.83
2019-03-31T06:28:52.041Z,14.03
2019-03-31T06:29:55.579Z,17.45
2019-03-31T06:30:59.017Z,17.45
2019-03-31T06:32:02.553Z,16.42
2019-03-31T06:33:06.126Z,22.30
2019-03-31T06:34:09.728Z,20.72
2019-03-31T06:35:13.305Z,20.55
2019-03-31T06:36:16.729Z,17.60
2019-03-31T06:37:20.174Z,15.20
2019-03-31T06:38:23.602Z,17.42
2019-03-31T06:39:27.039Z,29.50
2019-03-31T06:40:30.542Z,18.73
2019-03-31T06:41:34.052Z,16.12
2019-03-31T06:42:37.477Z,15.53
2019-03-31T06:43:40.904Z,18.50
2019-03-31T06:44:44.333Z,16.45
2019-03-31T06:45:47.758Z,23.32
2019-03-31T06:46:51.206Z,20.97
2019-03-31T06:47:54.634Z,16.93
2019-03-31T06:48:58.129Z,16.77
2019-03-31T06:50:01.565Z,17.95
2019-03-31T06:51:05.050Z,16.32
2019-03-31T06:52:08.505Z,17.20
2019-03-31T06:53:11.938Z,18.95
2019-03-31T06:54:15.367Z,15.93
2019-03-31T06:55:18.872Z,15.72
2019-03-31T06:56:22.548Z,24.25
2019-03-31T06:57:25.989Z,17.48
2019-03-31T06:58:29.411Z,16.17
2019-03-31T06:59:32.844Z,18.62
2019-03-31T07:00:36.422Z,19.27
2019-03-31T07:01:39.846Z,20.55
2019-03-31T07:02:43.297Z,20.43
2019-03-31T07:03:46.740Z,23.05
2019-03-31T07:05:00.406Z,21.15
2019-03-31T07:05:55.450Z,18.80
2019-03-31T07:06:59.112Z,23.75
2019-03-31T07:08:03.213Z,18.27
2019-03-31T07:09:06.784Z,16.00
2019-03-31T07:10:10.581Z,14.33
2019-03-31T07:11:14.144Z,18.30
2019-03-31T07:12:17.762Z,18.65
2019-03-31T07:13:21.335Z,19.40
2019-03-31T07:14:24.833Z,23.95
2019-03-31T07:15:28.400Z,18.80
2019-03-31T07:16:31.903Z,19.60
2019-03-31T07:17:35.557Z,18.70
2019-03-31T07:18:39.107Z,19.52
2019-03-31T07:19:42.606Z,17.15
2019-03-31T07:20:46.181Z,19.23
2019-03-31T07:21:49.668Z,14.28
2019-03-31T07:22:53.194Z,20.25
2019-03-31T07:23:56.691Z,19.57
2019-03-31T07:25:00.458Z,22.15
2019-03-31T07:26:04.131Z,16.77
2019-03-31T07:27:07.803Z,16.55
2019-03-31T07:28:11.354Z,15.50
2019-03-31T07:29:15.055Z,17.30
2019-03-31T07:30:19.852Z,14.95
2019-03-31T07:31:23.303Z,15.80
2019-03-31T07:32:26.909Z,16.32
2019-03-31T07:33:30.564Z,16.25
2019-03-31T07:34:34.184Z,16.00
2019-03-31T07:35:39.124Z,25.60
2019-03-31T07:36:43.177Z,13.75
2019-03-31T07:37:47.831Z,17.70
2019-03-31T07:38:51.737Z,18.00
2019-03-31T07:39:55.700Z,15.15
2019-03-31T07:41:12.018Z,15.35
2019-03-31T07:42:05.019Z,18.02
2019-03-31T07:43:08.788Z,15.93
2019-03-31T07:44:15.224Z,19.45
2019-03-31T07:45:17.983Z,16.65
2019-03-31T07:46:21.492Z,16.97
2019-03-31T07:47:25.157Z,20.92
2019-03-31T07:48:28.673Z,19.87
2019-03-31T07:49:32.174Z,15.83
2019-03-31T07:50:35.679Z,16.57
2019-03-31T07:51:39.120Z,19.45
2019-03-31T07:52:42.971Z,20.62
2019-03-31T07:53:46.418Z,18.57
2019-03-31T07:54:49.708Z,17.00
2019-03-31T07:55:53.182Z,21.02
2019-03-31T07:56:56.589Z,22.07
2019-03-31T07:58:00.115Z,19.57
2019-03-31T07:59:03.514Z,19.70
2019-03-31T08:00:14.145Z,19.70
2019-03-31T08:01:17.694Z,20.80
2019-03-31T08:02:21.144Z,20.37
2019-03-31T08:03:24.598Z,19.67
2019-03-31T08:04:28.031Z,19.30
2019-03-31T08:05:33.350Z,47.50
2019-03-31T08:06:36.699Z,40.30
2019-03-31T08:07:40.297Z,33.73
2019-03-31T08:08:43.730Z,21.73
2019-03-31T08:09:47.264Z,26.20
2019-03-31T08:10:50.727Z,47.45
2019-03-31T08:11:54.141Z,52.85
2019-03-31T08:12:57.618Z,23.18
2019-03-31T08:14:01.072Z,19.23
2019-03-31T08:15:06.614Z,19.92
2019-03-31T08:16:10.054Z,26.52
2019-03-31T08:17:13.487Z,21.50
2019-03-31T08:18:16.945Z,25.97
2019-03-31T08:19:20.856Z,24.70
2019-03-31T08:20:24.428Z,21.02
2019-03-31T08:21:27.868Z,24.95
2019-03-31T08:22:31.373Z,25.27
2019-03-31T08:23:38.001Z,32.33
2019-03-31T08:24:43.845Z,30.43
2019-03-31T08:25:47.329Z,26.90
2019-03-31T08:26:50.794Z,27.13
2019-03-31T08:27:54.350Z,27.60
2019-03-31T08:28:58.711Z,28.05
2019-03-31T08:30:02.207Z,27.73
2019-03-31T08:31:05.667Z,27.30
2019-03-31T08:32:09.515Z,32.75
2019-03-31T08:33:12.973Z,30.40
2019-03-31T08:34:16.417Z,28.32
2019-03-31T08:35:19.987Z,28.85
2019-03-31T08:36:23.424Z,32.60
2019-03-31T08:37:26.865Z,29.12
2019-03-31T08:38:30.311Z,35.55
2019-03-31T08:39:33.813Z,30.80
2019-03-31T08:40:37.322Z,30.12
2019-03-31T08:41:40.761Z,37.73
2019-03-31T08:42:44.258Z,31.70
2019-03-31T08:43:47.717Z,29.65
2019-03-31T08:44:51.146Z,34.92
2019-03-31T08:45:54.586Z,38.78
2019-03-31T08:46:58.022Z,34.75
2019-03-31T08:48:01.555Z,30.52
2019-03-31T08:49:04.985Z,35.23
2019-03-31T08:50:09.803Z,31.27
2019-03-31T08:51:13.294Z,35.65
2019-03-31T08:52:16.797Z,27.73
2019-03-31T08:53:20.329Z,35.35
2019-03-31T08:54:23.760Z,32.93
2019-03-31T08:55:27.208Z,33.70
2019-03-31T08:56:30.645Z,33.83
2019-03-31T08:57:34.080Z,35.45
2019-03-31T08:58:37.546Z,33.85
2019-03-31T08:59:41.010Z,36.60
2019-03-31T09:00:49.048Z,34.35
2019-03-31T09:01:52.521Z,35.38
2019-03-31T09:02:55.997Z,33.85
2019-03-31T09:03:59.421Z,35.98
2019-03-31T09:05:05.199Z,39.40
2019-03-31T09:06:08.787Z,38.63
2019-03-31T09:07:12.288Z,37.60
2019-03-31T09:08:15.793Z,41.88
2019-03-31T09:09:19.251Z,37.00
2019-03-31T09:10:22.702Z,47.83
2019-03-31T09:11:26.141Z,38.10
2019-03-31T09:12:29.700Z,38.88
2019-03-31T09:13:35.295Z,37.70
2019-03-31T09:14:38.374Z,37.85
2019-03-31T09:15:41.778Z,39.75
2019-03-31T09:16:45.217Z,42.78
2019-03-31T09:17:48.725Z,42.45
2019-03-31T09:18:52.182Z,39.35
2019-03-31T09:19:55.635Z,42.17
2019-03-31T09:20:59.072Z,40.28
2019-03-31T09:22:02.595Z,40.85
2019-03-31T09:23:06.175Z,43.68
2019-03-31T09:24:09.630Z,41.95
2019-03-31T09:25:13.528Z,40.63
2019-03-31T09:26:17.021Z,44.13
2019-03-31T09:27:20.445Z,55.00
2019-03-31T09:28:23.893Z,47.67
2019-03-31T09:29:27.363Z,42.80
2019-03-31T09:30:30.898Z,40.58
2019-03-31T09:31:34.371Z,37.00
2019-03-31T09:32:37.849Z,43.95
2019-03-31T09:33:41.300Z,44.85
2019-03-31T09:34:44.751Z,57.10
2019-03-31T09:35:48.280Z,60.35
2019-03-31T09:36:51.789Z,40.15
2019-03-31T09:37:55.255Z,37.50
2019-03-31T09:38:58.693Z,38.55
2019-03-31T09:40:02.224Z,43.17
2019-03-31T09:41:05.749Z,38.85
2019-03-31T09:42:09.187Z,38.25
2019-03-31T09:43:12.626Z,30.97
2019-03-31T09:44:16.061Z,39.00
2019-03-31T09:45:19.790Z,36.10
2019-03-31T09:46:23.230Z,37.45
2019-03-31T09:47:26.658Z,37.17
2019-03-31T09:48:30.247Z,41.75
2019-03-31T09:49:33.748Z,35.60
2019-03-31T09:50:37.213Z,34.98
2019-03-31T09:51:40.691Z,35.10
2019-03-31T09:52:44.280Z,36.90
2019-03-31T09:53:47.866Z,28.85
2019-03-31T09:54:51.432Z,33.58
2019-03-31T09:55:54.924Z,35.85
2019-03-31T09:56:58.441Z,30.85
2019-03-31T09:58:01.864Z,29.67
2019-03-31T09:59:05.438Z,31.33
2019-03-31T10:00:18.776Z,33.08
2019-03-31T10:01:22.236Z,30.37
2019-03-31T10:02:25.670Z,32.88
2019-03-31T10:03:29.125Z,32.35
2019-03-31T10:04:32.636Z,32.28
2019-03-31T10:05:36.166Z,29.10
2019-03-31T10:06:40.165Z,35.05
2019-03-31T10:07:43.671Z,31.68
2019-03-31T10:08:48.082Z,28.87
2019-03-31T10:09:52.363Z,26.45
2019-03-31T10:10:55.906Z,26.12
2019-03-31T10:11:59.409Z,30.80
2019-03-31T10:13:02.854Z,28.45
2019-03-31T10:14:06.359Z,25.12
2019-03-31T10:15:10.227Z,25.75
2019-03-31T10:16:13.687Z,31.50
2019-03-31T10:17:17.119Z,31.87
2019-03-31T10:18:20.558Z,25.72
2019-03-31T10:19:24.138Z,26.12
2019-03-31T10:20:31.164Z,29.67
2019-03-31T10:21:32.851Z,26.60
2019-03-31T10:22:36.434Z,25.02
2019-03-31T10:23:39.865Z,23.70
2019-03-31T10:24:43.372Z,22.32
2019-03-31T10:25:46.884Z,25.82
2019-03-31T10:26:50.407Z,32.03
2019-03-31T10:27:53.844Z,31.68
2019-03-31T10:28:57.275Z,32.75
2019-03-31T10:30:00.719Z,28.17
2019-03-31T10:31:04.363Z,27.45
2019-03-31T10:32:07.819Z,29.18
2019-03-31T10:33:11.285Z,34.30
2019-03-31T10:34:14.697Z,28.07
2019-03-31T10:35:18.129Z,24.80
2019-03-31T10:36:21.663Z,27.15
2019-03-31T10:37:25.132Z,24.20
2019-03-31T10:38:28.646Z,22.93
2019-03-31T10:39:32.081Z,24.85
2019-03-31T10:40:35.661Z,25.08
2019-03-31T10:41:39.204Z,29.23
2019-03-31T10:42:42.658Z,22.20
2019-03-31T10:43:46.153Z,29.37
2019-03-31T10:44:49.597Z,25.65
2019-03-31T10:45:53.034Z,23.87
2019-03-31T10:46:58.429Z,25.75
2019-03-31T10:48:01.792Z,24.12
2019-03-31T10:49:05.305Z,19.80
2019-03-31T10:50:09.095Z,20.43
2019-03-31T10:51:12.618Z,24.32
2019-03-31T10:52:16.144Z,26.48
2019-03-31T10:53:19.835Z,22.45
2019-03-31T10:54:23.271Z,23.75
2019-03-31T10:55:26.773Z,19.85
2019-03-31T10:56:30.221Z,22.80
2019-03-31T10:57:33.675Z,21.62
2019-03-31T10:58:37.121Z,26.75
2019-03-31T10:59:40.810Z,21.82
2019-03-31T11:00:44.917Z,20.35
2019-03-31T11:01:48.423Z,30.32
2019-03-31T11:02:52.032Z,33.60
2019-03-31T11:03:55.482Z,23.75
2019-03-31T11:04:58.932Z,25.10
2019-03-31T11:06:02.371Z,21.75
2019-03-31T11:07:06.031Z,26.15
2019-03-31T11:08:09.628Z,25.35
2019-03-31T11:09:13.145Z,20.08
2019-03-31T11:10:16.888Z,16.17
2019-03-31T11:11:20.462Z,18.07
2019-03-31T11:12:23.896Z,16.50
2019-03-31T11:13:28.272Z,15.08
2019-03-31T11:14:31.871Z,19.90
2019-03-31T11:15:35.490Z,17.80
2019-03-31T11:16:39.050Z,19.82
2019-03-31T11:17:42.502Z,20.25
2019-03-31T11:18:45.967Z,20.48
2019-03-31T11:19:49.551Z,23.07
2019-03-31T11:20:53.125Z,19.98
2019-03-31T11:21:58.226Z,22.67
2019-03-31T11:23:06.052Z,21.15
2019-03-31T11:24:09.495Z,19.12
2019-03-31T11:25:21.086Z,19.75
2019-03-31T11:26:18.323Z,17.05
2019-03-31T11:27:21.828Z,19.45
2019-03-31T11:28:25.360Z,15.58
2019-03-31T11:29:28.959Z,17.92
2019-03-31T11:30:32.372Z,17.50
2019-03-31T11:31:35.949Z,20.75
2019-03-31T11:32:39.577Z,17.95
2019-03-31T11:33:43.097Z,20.55
2019-03-31T11:34:46.622Z,19.45
2019-03-31T11:35:50.315Z,19.45
2019-03-31T11:36:53.963Z,16.20
2019-03-31T11:37:57.479Z,16.05
2019-03-31T11:39:00.950Z,20.72
2019-03-31T11:40:06.724Z,21.20
2019-03-31T11:41:10.344Z,18.10
2019-03-31T11:42:13.855Z,20.00
2019-03-31T11:43:17.445Z,15.53
2019-03-31T11:44:20.969Z,16.25
2019-03-31T11:45:24.539Z,18.52
2019-03-31T11:46:28.046Z,21.82
2019-03-31T11:47:31.545Z,15.78
2019-03-31T11:48:34.980Z,16.82
2019-03-31T11:49:38.442Z,16.42
2019-03-31T11:50:41.949Z,15.68
2019-03-31T11:51:45.498Z,21.62
2019-03-31T11:52:48.908Z,14.25
2019-03-31T11:53:52.486Z,20.48
2019-03-31T11:54:55.943Z,16.12
2019-03-31T11:55:59.400Z,16.23
2019-03-31T11:57:02.836Z,16.67
2019-03-31T11:58:06.267Z,16.85
2019-03-31T11:59:09.972Z,16.57
2019-03-31T12:00:15.351Z,23.30
2019-03-31T12:01:18.791Z,20.10
2019-03-31T12:02:27.331Z,24.47
2019-03-31T12:03:30.744Z,28.30
2019-03-31T12:04:33.190Z,18.37
2019-03-31T12:05:36.707Z,23.18
2019-03-31T12:06:40.430Z,28.07
2019-03-31T12:07:47.093Z,22.42
2019-03-31T12:08:49.111Z,21.17
2019-03-31T12:09:52.552Z,21.75
2019-03-31T12:10:56.147Z,20.10
2019-03-31T12:11:59.883Z,25.65
2019-03-31T12:13:03.524Z,14.33
2019-03-31T12:14:07.030Z,20.43
2019-03-31T12:15:11.417Z,19.67
2019-03-31T12:16:14.942Z,21.60
2019-03-31T12:17:18.455Z,18.85
2019-03-31T12:18:21.917Z,17.32
2019-03-31T12:19:25.370Z,18.05
2019-03-31T12:20:28.809Z,18.90
2019-03-31T12:21:32.262Z,18.90
2019-03-31T12:22:35.782Z,21.27
2019-03-31T12:23:39.295Z,17.03
2019-03-31T12:24:42.730Z,19.80
2019-03-31T12:25:46.168Z,16.90
2019-03-31T12:26:49.623Z,20.13
2019-03-31T12:27:53.066Z,16.10
2019-03-31T12:28:56.511Z,15.90
2019-03-31T12:29:59.942Z,18.30
2019-03-31T12:31:03.380Z,17.43
2019-03-31T12:32:06.903Z,16.30
2019-03-31T12:33:10.333Z,13.87
2019-03-31T12:34:13.841Z,16.57
2019-03-31T12:35:17.319Z,14.77
2019-03-31T12:36:20.848Z,14.30
2019-03-31T12:37:24.276Z,19.23
2019-03-31T12:38:27.772Z,14.33
2019-03-31T12:39:31.311Z,13.37
2019-03-31T12:40:36.466Z,16.00
2019-03-31T12:41:39.916Z,18.47
2019-03-31T12:42:43.369Z,17.20
2019-03-31T12:43:46.800Z,20.13
2019-03-31T12:44:50.244Z,16.03
2019-03-31T12:45:53.759Z,14.83
2019-03-31T12:46:57.232Z,14.47
2019-03-31T12:48:01.453Z,15.70
2019-03-31T12:49:05.347Z,16.47
2019-03-31T12:50:08.961Z,13.40
2019-03-31T12:51:12.463Z,13.27
2019-03-31T12:52:15.923Z,12.13
2019-03-31T12:53:19.356Z,14.40
2019-03-31T12:54:22.798Z,16.30
2019-03-31T12:55:26.233Z,15.20
2019-03-31T12:56:29.759Z,15.50
2019-03-31T12:57:33.273Z,12.20
2019-03-31T12:58:36.706Z,15.20
2019-03-31T12:59:40.145Z,18.53
2019-03-31T13:00:43.577Z,15.90
2019-03-31T13:01:47.111Z,16.50
2019-03-31T13:02:50.620Z,14.83
2019-03-31T13:03:54.070Z,20.03
2019-03-31T13:04:57.499Z,13.30
2019-03-31T13:06:00.934Z,14.33
2019-03-31T13:07:04.450Z,16.13
2019-03-31T13:08:07.962Z,15.03
2019-03-31T13:09:11.480Z,13.23
2019-03-31T13:10:15.120Z,16.00
2019-03-31T13:11:18.551Z,16.87
2019-03-31T13:12:22.007Z,16.60
2019-03-31T13:13:25.434Z,12.97
2019-03-31T13:14:28.869Z,18.67
2019-03-31T13:15:32.308Z,18.10
2019-03-31T13:16:35.751Z,15.50
2019-03-31T13:17:39.179Z,85.37
2019-03-31T13:18:42.694Z,69.33
2019-03-31T13:19:46.189Z,16.23
2019-03-31T13:20:49.985Z,16.03
2019-03-31T13:21:53.455Z,15.53
2019-03-31T13:22:56.919Z,18.87
2019-03-31T13:24:00.418Z,13.27
2019-03-31T13:25:04.892Z,39.57
2019-03-31T13:26:08.330Z,38.33
2019-03-31T13:27:11.791Z,42.83
2019-03-31T13:28:15.240Z,29.53
2019-03-31T13:29:18.668Z,46.40
2019-03-31T13:30:22.314Z,38.20
2019-03-31T13:31:25.715Z,13.93
2019-03-31T13:32:29.167Z,22.13
2019-03-31T13:33:32.607Z,23.33
2019-03-31T13:34:36.117Z,46.97
2019-03-31T13:35:39.634Z,24.00
2019-03-31T13:36:43.136Z,28.87
2019-03-31T13:37:46.671Z,25.83
2019-03-31T13:38:50.121Z,12.97
2019-03-31T13:39:53.551Z,13.60
2019-03-31T13:40:57.128Z,12.83